createdAt,value
2023-02-11T00:01:39.239Z,6.4
2023-02-11T00:04:09.254Z,6.4
2023-02-11T00:06:39.287Z,6.4
2023-02-11T00:11:39.327Z,6.4
2023-02-11T00:14:09.342Z,6.4
2023-02-11T00:16:39.426Z,6.4
2023-02-11T00:19:09.388Z,6.4
2023-02-11T00:21:39.411Z,6.4
2023-02-11T00:24:09.456Z,6.4
2023-02-11T00:26:39.474Z,6.4
2023-02-11T00:29:09.511Z,6.4
2023-02-11T00:31:39.789Z,6.4
2023-02-11T00:34:09.543Z,6.4
2023-02-11T00:36:39.551Z,6.4
2023-02-11T00:39:09.589Z,6.4
2023-02-11T00:41:39.590Z,6.5
2023-02-11T00:44:09.625Z,6.4
2023-02-11T00:46:39.824Z,6.4
2023-02-11T00:49:09.700Z,6.4
2023-02-11T00:51:39.713Z,6.4
2023-02-11T00:54:09.703Z,6.4
2023-02-11T00:59:09.765Z,6.4
2023-02-11T01:01:39.843Z,6.4
2023-02-11T01:04:09.819Z,6.4
2023-02-11T01:09:09.869Z,6.4
2023-02-11T01:11:39.878Z,6.4
2023-02-11T01:14:09.895Z,6.4
2023-02-11T01:19:09.975Z,6.4
2023-02-11T01:21:40.008Z,6.4
2023-02-11T01:26:40.080Z,6.3
2023-02-11T01:29:10.117Z,6.3
2023-02-11T01:31:40.101Z,6.4
2023-02-11T01:34:10.148Z,6.3
2023-02-11T01:36:40.145Z,6.3
2023-02-11T01:39:10.171Z,6.3
2023-02-11T01:41:40.176Z,6.4
2023-02-11T01:44:10.182Z,6.4
2023-02-11T01:46:40.249Z,6.3
2023-02-11T01:49:10.423Z,6.3
2023-02-11T01:51:40.257Z,6.3
2023-02-11T01:54:10.298Z,6.4
2023-02-11T01:56:40.310Z,6.4
2023-02-11T01:59:10.333Z,6.4
2023-02-11T02:01:40.513Z,6.4
2023-02-11T02:04:10.380Z,6.4
2023-02-11T02:06:40.393Z,6.4
2023-02-11T02:09:10.418Z,6.4
2023-02-11T02:14:10.459Z,6.4
2023-02-11T02:19:10.520Z,6.3
2023-02-11T02:21:40.538Z,6.3
2023-02-11T02:24:12.585Z,6.3
2023-02-11T02:26:40.589Z,6.3
2023-02-11T02:29:10.626Z,6.2
2023-02-11T02:31:40.719Z,6.2
2023-02-11T02:34:10.655Z,6.2
2023-02-11T02:36:40.683Z,6.2
2023-02-11T02:39:10.724Z,6.2
2023-02-11T02:41:40.720Z,6.2
2023-02-11T02:46:40.889Z,6.2
2023-02-11T02:49:10.809Z,6.2
2023-02-11T02:51:40.830Z,6.2
2023-02-11T02:54:10.866Z,6.2
2023-02-11T02:56:40.870Z,6.2
2023-02-11T02:59:10.899Z,6.2
2023-02-11T03:01:40.938Z,6.2
2023-02-11T03:06:40.972Z,6.2
2023-02-11T03:14:11.047Z,6.2
2023-02-11T03:16:41.145Z,6.2
2023-02-11T03:19:11.094Z,6.2
2023-02-11T03:21:41.122Z,6.2
2023-02-11T03:24:11.172Z,6.3
2023-02-11T03:26:41.172Z,6.2
2023-02-11T03:29:11.190Z,6.2
2023-02-11T03:31:41.393Z,6.2
2023-02-11T03:36:41.237Z,6.3
2023-02-11T03:39:11.259Z,6.3
2023-02-11T03:41:41.287Z,6.3
2023-02-11T03:44:11.310Z,6.3
2023-02-11T03:46:41.363Z,6.3
2023-02-11T03:49:11.380Z,6.3
2023-02-11T03:51:41.387Z,6.3
2023-02-11T03:54:11.421Z,6.2
2023-02-11T03:56:41.446Z,6.2
2023-02-11T04:04:11.498Z,6.3
2023-02-11T04:06:41.540Z,6.3
2023-02-11T04:09:11.565Z,6.3
2023-02-11T04:14:11.606Z,6.3
2023-02-11T04:16:41.806Z,6.3
2023-02-11T04:19:11.667Z,6.3
2023-02-11T04:26:41.735Z,6.3
2023-02-11T04:29:11.759Z,6.3
2023-02-11T04:34:11.802Z,6.3
2023-02-11T04:36:41.824Z,6.3
2023-02-11T04:39:11.898Z,6.4
2023-02-11T04:41:41.873Z,6.3
2023-02-11T04:44:11.894Z,6.4
2023-02-11T04:46:41.913Z,6.3
2023-02-11T04:49:11.945Z,6.4
2023-02-11T04:54:11.993Z,6.4
2023-02-11T04:56:41.997Z,6.3
2023-02-11T04:59:12.046Z,6.4
2023-02-11T05:01:42.131Z,6.4
2023-02-11T05:04:12.152Z,6.4
2023-02-11T05:06:42.095Z,6.4
2023-02-11T05:09:12.132Z,6.4
2023-02-11T05:14:12.168Z,6.4
2023-02-11T05:21:53.150Z,6.4
2023-02-11T05:26:42.290Z,6.4
2023-02-11T05:29:12.305Z,6.4
2023-02-11T05:31:42.334Z,6.4
2023-02-11T05:34:12.363Z,6.4
2023-02-11T05:36:42.374Z,6.4
2023-02-11T05:39:12.509Z,6.4
2023-02-11T05:41:42.431Z,6.4
2023-02-11T05:44:12.448Z,6.4
2023-02-11T05:46:42.572Z,6.4
2023-02-11T05:49:12.496Z,6.4
2023-02-11T05:51:42.515Z,6.4
2023-02-11T05:54:12.550Z,6.5
2023-02-11T05:56:44.468Z,6.4
2023-02-11T05:59:12.611Z,6.4
2023-02-11T06:01:42.614Z,6.4
2023-02-11T06:04:12.633Z,6.4
2023-02-11T06:06:42.675Z,6.4
2023-02-11T06:09:12.702Z,6.4
2023-02-11T06:11:42.746Z,6.4
2023-02-11T06:14:12.733Z,6.4
2023-02-11T06:16:42.761Z,6.4
2023-02-11T06:19:12.788Z,6.4
2023-02-11T06:21:44.419Z,6.4
2023-02-11T06:26:42.845Z,6.4
2023-02-11T06:29:12.902Z,6.4
2023-02-11T06:31:43.095Z,6.4
2023-02-11T06:34:12.931Z,6.4
2023-02-11T06:39:12.987Z,6.5
2023-02-11T06:41:42.984Z,6.5
2023-02-11T06:44:13.012Z,6.5
2023-02-11T06:46:43.089Z,6.5
2023-02-11T06:51:43.083Z,6.5
2023-02-11T06:54:13.132Z,6.5
2023-02-11T06:56:43.130Z,6.5
2023-02-11T06:59:13.161Z,6.6
2023-02-11T07:01:43.381Z,6.5
2023-02-11T07:04:13.200Z,6.5
2023-02-11T07:09:13.300Z,6.6
2023-02-11T07:11:43.271Z,6.5
2023-02-11T07:14:13.316Z,6.5
2023-02-11T07:19:13.353Z,6.6
2023-02-11T07:21:43.406Z,6.6
2023-02-11T07:24:13.396Z,6.6
2023-02-11T07:26:43.415Z,6.6
2023-02-11T07:29:13.453Z,6.6
2023-02-11T07:31:43.683Z,6.6
2023-02-11T07:34:13.494Z,6.6
2023-02-11T07:39:13.532Z,6.7
2023-02-11T07:41:43.595Z,6.7
2023-02-11T07:44:13.593Z,6.7
2023-02-11T07:46:43.688Z,6.7
2023-02-11T07:56:43.706Z,6.9
2023-02-11T07:59:13.716Z,6.9
2023-02-11T08:01:43.788Z,6.9
2023-02-11T08:06:43.800Z,7
2023-02-11T08:09:13.852Z,7
2023-02-11T08:11:43.849Z,7
2023-02-11T08:14:13.862Z,7
2023-02-11T08:21:43.947Z,7.1
2023-02-11T08:24:13.950Z,7.1
2023-02-11T08:26:43.988Z,7.1
2023-02-11T08:31:44.233Z,7.1
2023-02-11T08:34:14.063Z,7.2
2023-02-11T08:36:44.087Z,7.2
2023-02-11T08:39:19.782Z,7.3
2023-02-11T08:41:44.119Z,7.3
2023-02-11T08:44:14.165Z,7.3
2023-02-11T08:49:14.219Z,7.3
2023-02-11T08:54:14.261Z,7.3
2023-02-11T08:56:44.264Z,7.4
2023-02-11T08:59:14.300Z,7.4
2023-02-11T09:06:44.373Z,7.5
2023-02-11T09:09:14.394Z,7.5
2023-02-11T09:11:44.427Z,7.6
2023-02-11T09:19:18.828Z,7.7
2023-02-11T09:21:48.878Z,7.7
2023-02-11T09:24:18.888Z,7.9
2023-02-11T09:26:48.916Z,7.9
2023-02-11T09:29:18.919Z,8
2023-02-11T09:31:49.173Z,8
2023-02-11T09:34:18.976Z,8
2023-02-11T09:36:49.038Z,8
2023-02-11T09:39:19.019Z,8
2023-02-11T09:41:49.054Z,8.1
2023-02-11T09:44:19.069Z,8.1
2023-02-11T09:46:49.106Z,8.1
2023-02-11T09:51:49.161Z,8.1
2023-02-11T09:54:19.194Z,8.2
2023-02-11T09:56:49.181Z,8.3
2023-02-11T10:01:49.337Z,8.39
2023-02-11T10:04:19.339Z,8.39
2023-02-11T10:06:49.271Z,8.5
2023-02-11T10:09:19.321Z,8.7
2023-02-11T10:11:49.329Z,8.89
2023-02-11T10:14:19.346Z,8.89
2023-02-11T10:16:49.364Z,8.89
2023-02-11T10:19:19.387Z,8.89
2023-02-11T10:21:49.419Z,8.89
2023-02-11T10:24:19.442Z,9
2023-02-11T10:26:49.482Z,9
2023-02-11T10:29:19.488Z,9.1
2023-02-11T10:34:19.570Z,9.2
2023-02-11T10:36:49.565Z,9.3
2023-02-11T10:39:19.592Z,9.3
2023-02-11T10:41:49.608Z,9.2
2023-02-11T10:44:19.774Z,9.3
2023-02-11T10:46:49.732Z,9.3
2023-02-11T10:51:49.696Z,9.39
2023-02-11T10:54:19.715Z,9.39
2023-02-11T10:56:49.823Z,9.39
2023-02-11T11:01:49.856Z,9.39
2023-02-11T11:04:19.898Z,9.5
2023-02-11T11:06:49.896Z,9.6
2023-02-11T11:14:19.910Z,9.7
2023-02-11T11:16:49.934Z,9.6
2023-02-11T11:24:20.028Z,9.5
2023-02-11T11:26:50.088Z,9.5
2023-02-11T11:29:20.059Z,9.5
2023-02-11T11:34:20.127Z,9.5
2023-02-11T11:39:20.148Z,9.7
2023-02-11T11:41:50.158Z,9.7
2023-02-11T11:44:20.213Z,9.7
2023-02-11T11:46:50.268Z,9.7
2023-02-11T11:51:50.255Z,9.89
2023-02-11T11:54:20.319Z,9.89
2023-02-11T11:59:20.313Z,9.8
2023-02-11T12:01:50.410Z,9.8
2023-02-11T12:04:20.380Z,9.89
2023-02-11T12:06:50.416Z,9.8
2023-02-11T12:09:20.420Z,9.7
2023-02-11T12:11:50.453Z,9.7
2023-02-11T12:16:50.583Z,9.8
2023-02-11T12:19:20.498Z,9.89
2023-02-11T12:21:51.058Z,10
2023-02-11T12:26:55.373Z,10.2
2023-02-11T12:29:20.686Z,10.2
2023-02-11T12:31:50.926Z,10.3
2023-02-11T12:34:20.706Z,10.3
2023-02-11T12:39:20.712Z,10.2
2023-02-11T12:41:50.735Z,10.4
2023-02-11T12:46:50.796Z,10.4
2023-02-11T12:49:20.804Z,10.5
2023-02-11T12:51:50.966Z,10.6
2023-02-11T12:54:20.867Z,10.7
2023-02-11T12:59:20.893Z,10.9
2023-02-11T13:04:20.950Z,11
2023-02-11T13:06:50.970Z,10.9
2023-02-11T13:09:21.001Z,10.9
2023-02-11T13:11:51.009Z,11
2023-02-11T13:21:51.095Z,11.2
2023-02-11T13:29:21.168Z,11.3
2023-02-11T13:39:21.261Z,11.3
2023-02-11T13:41:52.751Z,11.3
2023-02-11T13:44:21.298Z,11.5
2023-02-11T13:46:51.322Z,11.7
2023-02-11T13:49:21.370Z,11.6
2023-02-11T13:51:51.391Z,11.7
2023-02-11T13:54:21.409Z,11.7
2023-02-11T13:56:51.440Z,11.7
2023-02-11T13:59:21.512Z,11.6
2023-02-11T14:06:51.520Z,11.2
2023-02-11T14:09:21.556Z,11.3
2023-02-11T14:11:51.577Z,11.5
2023-02-11T14:16:51.678Z,11.5
2023-02-11T14:19:21.665Z,11.4
2023-02-11T14:21:51.676Z,11.2
2023-02-11T14:24:21.713Z,11.2
2023-02-11T14:29:21.740Z,11.1
2023-02-11T14:31:51.904Z,11
2023-02-11T14:34:21.799Z,10.8
2023-02-11T14:36:51.841Z,10.7
2023-02-11T14:44:21.901Z,10.4
2023-02-11T14:46:51.906Z,10.3
2023-02-11T14:54:21.972Z,10.3
2023-02-11T14:56:52.005Z,10.3
2023-02-11T14:59:22.047Z,10.3
2023-02-11T15:01:52.143Z,10.3
2023-02-11T15:06:52.106Z,10.1
2023-02-11T15:14:22.168Z,10
2023-02-11T15:16:52.196Z,10.1
2023-02-11T15:24:22.270Z,10.3
2023-02-11T15:26:52.289Z,10.1
2023-02-11T15:31:52.449Z,10
2023-02-11T15:36:52.486Z,10.3
2023-02-11T15:39:22.438Z,10.6
2023-02-11T15:44:22.458Z,13.5
2023-02-11T15:49:22.513Z,11.9
2023-02-11T15:51:52.533Z,11.1
2023-02-11T15:54:22.549Z,10.7
2023-02-11T16:01:52.767Z,10.5
2023-02-11T16:06:52.676Z,10.3
2023-02-11T16:14:22.807Z,10
2023-02-11T16:21:52.824Z,10.1
2023-02-11T16:31:52.928Z,10
2023-02-11T16:34:22.922Z,9.89
2023-02-11T16:46:53.118Z,9.7
2023-02-11T16:54:23.147Z,9.6
2023-02-11T16:56:53.145Z,9.6
2023-02-11T17:01:53.222Z,9.5
2023-02-11T17:04:23.335Z,9.39
2023-02-11T17:06:53.263Z,9.39
2023-02-11T17:09:23.292Z,9.39
2023-02-11T17:11:53.273Z,9.39
2023-02-11T17:19:23.329Z,9.39
2023-02-11T17:24:23.389Z,9.3
2023-02-11T17:29:23.449Z,9.2
2023-02-11T17:39:23.534Z,9.2
2023-02-11T17:41:53.565Z,9.2
2023-02-11T17:46:53.606Z,9.1
2023-02-11T17:51:53.641Z,9.1
2023-02-11T17:54:23.672Z,9.1
2023-02-11T17:56:55.163Z,9.2
2023-02-11T17:59:23.718Z,9.1
2023-02-11T18:04:23.861Z,9.1
2023-02-11T18:19:23.918Z,9
2023-02-11T18:24:23.967Z,9
2023-02-11T18:26:53.976Z,9.1
2023-02-11T18:31:54.127Z,9.1
2023-02-11T18:34:24.060Z,9.2
2023-02-11T18:41:54.171Z,9
2023-02-11T18:51:54.221Z,8.8
2023-02-11T18:54:24.264Z,8.8
2023-02-11T19:01:54.611Z,8.7
2023-02-11T19:06:54.370Z,8.7
2023-02-11T19:11:54.628Z,8.7
2023-02-11T19:16:54.574Z,8.7
2023-02-11T19:24:24.527Z,8.7
2023-02-11T19:26:54.590Z,8.7
2023-02-11T19:31:54.787Z,8.7
2023-02-11T19:34:24.633Z,8.6
2023-02-11T19:39:24.739Z,8.6
2023-02-11T19:44:24.715Z,8.6
2023-02-11T19:54:24.809Z,8.5
2023-02-11T19:59:24.859Z,8.6
2023-02-11T20:01:55.025Z,8.6
2023-02-11T20:09:24.961Z,8.5
2023-02-11T20:11:54.990Z,8.5
2023-02-11T20:14:27.508Z,8.5
2023-02-11T20:16:55.029Z,8.5
2023-02-11T20:19:25.087Z,8.5
2023-02-11T20:24:25.235Z,8.5
2023-02-11T20:26:55.177Z,8.5
2023-02-11T20:29:25.151Z,8.5
2023-02-11T20:31:55.474Z,8.5
2023-02-11T20:34:25.256Z,8.5
2023-02-11T20:36:55.223Z,8.5
2023-02-11T20:41:55.261Z,8.39
2023-02-11T20:44:25.289Z,8.5
2023-02-11T20:46:55.323Z,8.39
2023-02-11T20:49:25.354Z,8.39
2023-02-11T20:51:55.352Z,8.39
2023-02-11T20:54:25.371Z,8.39
2023-02-11T20:56:55.441Z,8.39
2023-02-11T20:59:25.416Z,8.39
2023-02-11T21:01:55.702Z,8.39
2023-02-11T21:04:25.474Z,8.39
2023-02-11T21:06:55.496Z,8.3
2023-02-11T21:09:25.522Z,8.3
2023-02-11T21:11:55.542Z,8.3
2023-02-11T21:14:25.571Z,8.3
2023-02-11T21:19:25.633Z,8.3
2023-02-11T21:21:55.642Z,8.3
2023-02-11T21:24:25.693Z,8.3
2023-02-11T21:26:55.695Z,8.3
2023-02-11T21:29:25.701Z,8.3
2023-02-11T21:31:55.841Z,8.3
2023-02-11T21:36:55.776Z,8.3
2023-02-11T21:39:25.795Z,8.2
2023-02-11T21:41:55.833Z,8.2
2023-02-11T21:46:55.965Z,8.3
2023-02-11T21:49:25.933Z,8.2
2023-02-11T21:51:55.929Z,8.2
2023-02-11T21:54:25.953Z,8.2
2023-02-11T21:56:56.002Z,8.2
2023-02-11T21:59:26.014Z,8.2
2023-02-11T22:01:56.033Z,8.2
2023-02-11T22:04:26.069Z,8.1
2023-02-11T22:06:56.070Z,8.1
2023-02-11T22:09:26.092Z,8.1
2023-02-11T22:11:56.120Z,8.1
2023-02-11T22:14:26.165Z,8.1
2023-02-11T22:16:56.208Z,8.1
2023-02-11T22:19:26.189Z,8.1
2023-02-11T22:21:56.249Z,8.1
2023-02-11T22:24:26.268Z,8.1
2023-02-11T22:26:56.288Z,8.1
2023-02-11T22:29:26.287Z,8
2023-02-11T22:31:56.346Z,8
2023-02-11T22:34:26.320Z,8
2023-02-11T22:36:56.350Z,8
2023-02-11T22:39:26.383Z,8
2023-02-11T22:41:56.399Z,8
2023-02-11T22:44:26.427Z,8
2023-02-11T22:46:56.442Z,8
2023-02-11T22:49:26.456Z,8
2023-02-11T22:51:56.468Z,8
2023-02-11T22:54:26.511Z,7.9
2023-02-11T22:56:56.534Z,7.9
2023-02-11T23:01:56.787Z,7.9
2023-02-11T23:04:26.596Z,7.9
2023-02-11T23:06:56.627Z,7.8
2023-02-11T23:09:26.676Z,7.8
2023-02-11T23:11:56.695Z,7.8
2023-02-11T23:14:26.702Z,7.8
2023-02-11T23:16:56.815Z,7.7
2023-02-11T23:19:26.741Z,7.7
2023-02-11T23:21:56.783Z,7.7
2023-02-11T23:24:26.783Z,7.6
2023-02-11T23:26:56.822Z,7.6
2023-02-11T23:29:26.841Z,7.5
2023-02-11T23:31:58.804Z,7.5
2023-02-11T23:34:26.898Z,7.5
2023-02-11T23:36:56.901Z,7.4
2023-02-11T23:39:26.919Z,7.4
2023-02-11T23:41:56.967Z,7.4
2023-02-11T23:44:26.990Z,7.3
2023-02-11T23:46:56.990Z,7.3
2023-02-11T23:49:27.200Z,7.2
2023-02-11T23:51:57.056Z,7.2
2023-02-11T23:54:27.086Z,7.1
2023-02-11T23:56:57.090Z,7.1
2023-02-11T23:59:27.132Z,7
